createdAt,value
2023-12-20T00:00:45.952Z,962.1
2023-12-20T00:01:52.118Z,962.1
2023-12-20T00:02:58.254Z,962.1
2023-12-20T00:04:04.504Z,962.1
2023-12-20T00:05:10.534Z,962.1
2023-12-20T00:06:16.675Z,962
2023-12-20T00:07:22.823Z,961.9
2023-12-20T00:08:28.965Z,961.8
2023-12-20T00:09:35.114Z,961.8
2023-12-20T00:10:41.253Z,961.7
2023-12-20T00:11:47.402Z,961.7
2023-12-20T00:12:53.542Z,961.7
2023-12-20T00:13:58.700Z,961.7
2023-12-20T00:15:04.837Z,961.7
2023-12-20T00:16:10.984Z,961.7
2023-12-20T00:17:17.129Z,961.8
2023-12-20T00:18:23.297Z,961.9
2023-12-20T00:19:29.420Z,961.9
2023-12-20T00:20:35.567Z,961.8
2023-12-20T00:21:41.703Z,961.9
2023-12-20T00:22:47.843Z,961.8
2023-12-20T00:23:53.988Z,961.8
2023-12-20T00:25:00.133Z,961.7
2023-12-20T00:26:06.277Z,961.6
2023-12-20T00:27:12.422Z,961.6
2023-12-20T00:28:17.603Z,961.6
2023-12-20T00:29:23.724Z,961.5
2023-12-20T00:30:29.881Z,961.5
2023-12-20T00:31:36.012Z,961.4
2023-12-20T00:32:42.155Z,961.5
2023-12-20T00:33:48.303Z,961.5
2023-12-20T00:34:53.495Z,961.5
2023-12-20T00:35:59.610Z,961.4
2023-12-20T00:37:05.772Z,961.4
2023-12-20T00:38:11.901Z,961.4
2023-12-20T00:39:18.036Z,961.4
2023-12-20T00:40:24.204Z,961.4
2023-12-20T00:41:30.326Z,961.4
2023-12-20T00:42:36.543Z,961.3
2023-12-20T00:43:42.619Z,961.3
2023-12-20T00:44:48.755Z,961.3
2023-12-20T00:45:54.911Z,961.2
2023-12-20T00:47:01.043Z,961.3
2023-12-20T00:48:07.229Z,961.3
2023-12-20T00:49:12.362Z,961.3
2023-12-20T00:50:18.506Z,961.3
2023-12-20T00:51:24.650Z,961.3
2023-12-20T00:52:30.778Z,961.3
2023-12-20T00:53:36.922Z,961.3
2023-12-20T00:54:43.061Z,961.3
2023-12-20T00:55:49.229Z,961.2
2023-12-20T00:56:55.345Z,961.3
2023-12-20T00:58:01.492Z,961.3
2023-12-20T00:59:07.637Z,961.3
2023-12-20T01:00:13.785Z,961.3
2023-12-20T01:01:19.946Z,961.3
2023-12-20T01:02:26.104Z,961.3
2023-12-20T01:03:31.222Z,961.3
2023-12-20T01:04:37.375Z,961.4
2023-12-20T01:05:43.527Z,961.4
2023-12-20T01:06:49.659Z,961.5
2023-12-20T01:07:55.817Z,961.5
2023-12-20T01:09:01.950Z,961.5
2023-12-20T01:10:08.094Z,961.5
2023-12-20T01:11:14.349Z,961.5
2023-12-20T01:12:20.492Z,961.5
2023-12-20T01:13:26.630Z,961.4
2023-12-20T01:14:32.778Z,961.4
2023-12-20T01:15:38.931Z,961.5
2023-12-20T01:16:45.067Z,961.5
2023-12-20T01:17:50.228Z,961.4
2023-12-20T01:18:56.381Z,961.4
2023-12-20T01:20:02.515Z,961.4
2023-12-20T01:21:08.662Z,961.4
2023-12-20T01:22:14.807Z,961.4
2023-12-20T01:23:20.972Z,961.4
2023-12-20T01:24:27.114Z,961.4
2023-12-20T01:25:33.250Z,961.4
2023-12-20T01:26:39.377Z,961.4
2023-12-20T01:27:45.541Z,961.4
2023-12-20T01:28:51.661Z,961.4
2023-12-20T01:29:57.804Z,961.4
2023-12-20T01:31:03.944Z,961.5
2023-12-20T01:32:09.101Z,961.4
2023-12-20T01:33:15.248Z,961.5
2023-12-20T01:34:21.397Z,961.5
2023-12-20T01:35:27.540Z,961.5
2023-12-20T01:36:33.680Z,961.4
2023-12-20T01:37:39.872Z,961.4
2023-12-20T01:38:45.973Z,961.4
2023-12-20T01:39:52.110Z,961.4
2023-12-20T01:40:58.272Z,961.4
2023-12-20T01:42:04.399Z,961.4
2023-12-20T01:43:10.545Z,961.4
2023-12-20T01:44:16.679Z,961.4
2023-12-20T01:45:22.838Z,961.4
2023-12-20T01:46:27.996Z,961.3
2023-12-20T01:47:34.125Z,961.4
2023-12-20T01:48:40.280Z,961.4
2023-12-20T01:49:46.412Z,961.4
2023-12-20T01:50:52.568Z,961.4
2023-12-20T01:51:58.710Z,961.4
2023-12-20T01:53:04.909Z,961.4
2023-12-20T01:54:10.995Z,961.4
2023-12-20T01:55:17.141Z,961.4
2023-12-20T01:56:23.276Z,961.5
2023-12-20T01:57:29.438Z,961.5
2023-12-20T01:58:35.582Z,961.5
2023-12-20T01:59:41.712Z,961.5
2023-12-20T02:00:46.874Z,961.5
2023-12-20T02:01:53.021Z,961.5
2023-12-20T02:02:59.163Z,961.5
2023-12-20T02:04:05.296Z,961.5
2023-12-20T02:05:11.447Z,961.5
2023-12-20T02:06:17.611Z,961.5
2023-12-20T02:07:23.723Z,961.5
2023-12-20T02:08:29.871Z,961.5
2023-12-20T02:09:36.020Z,961.5
2023-12-20T02:10:42.166Z,961.5
2023-12-20T02:11:48.304Z,961.4
2023-12-20T02:12:54.455Z,961.4
2023-12-20T02:14:00.632Z,961.4
2023-12-20T02:15:05.757Z,961.4
2023-12-20T02:16:11.892Z,961.5
2023-12-20T02:17:18.056Z,961.5
2023-12-20T02:18:24.259Z,961.5
2023-12-20T02:19:30.372Z,961.5
2023-12-20T02:20:36.483Z,961.5
2023-12-20T02:21:42.618Z,961.4
2023-12-20T02:22:48.759Z,961.4
2023-12-20T02:23:54.902Z,961.4
2023-12-20T02:25:01.055Z,961.4
2023-12-20T02:26:07.210Z,961.4
2023-12-20T02:27:13.340Z,961.4
2023-12-20T02:28:19.481Z,961.4
2023-12-20T02:29:24.630Z,961.4
2023-12-20T02:30:30.805Z,961.4
2023-12-20T02:31:36.921Z,961.4
2023-12-20T02:32:43.062Z,961.4
2023-12-20T02:33:49.208Z,961.5
2023-12-20T02:34:55.376Z,961.5
2023-12-20T02:36:01.499Z,961.5
2023-12-20T02:37:07.639Z,961.5
2023-12-20T02:38:13.786Z,961.5
2023-12-20T02:39:19.926Z,961.5
2023-12-20T02:40:26.070Z,961.5
2023-12-20T02:41:32.216Z,961.5
2023-12-20T02:42:38.370Z,961.5
2023-12-20T02:43:43.519Z,961.5
2023-12-20T02:44:49.667Z,961.5
2023-12-20T02:45:55.822Z,961.6
2023-12-20T02:47:01.964Z,961.6
2023-12-20T02:48:08.093Z,961.6
2023-12-20T02:49:14.233Z,961.6
2023-12-20T02:50:20.385Z,961.6
2023-12-20T02:51:26.529Z,961.5
2023-12-20T02:52:32.674Z,961.5
2023-12-20T02:53:38.810Z,961.5
2023-12-20T02:54:44.951Z,961.5
2023-12-20T02:55:51.091Z,961.5
2023-12-20T02:56:57.239Z,961.5
2023-12-20T02:58:02.403Z,961.5
2023-12-20T02:59:08.536Z,961.4
2023-12-20T03:00:14.697Z,961.5
2023-12-20T03:01:20.829Z,961.5
2023-12-20T03:02:26.978Z,961.5
2023-12-20T03:03:33.148Z,961.4
2023-12-20T03:04:39.259Z,961.4
2023-12-20T03:05:45.402Z,961.4
2023-12-20T03:06:51.543Z,961.4
2023-12-20T03:07:57.700Z,961.4
2023-12-20T03:09:03.834Z,961.4
2023-12-20T03:10:09.982Z,961.4
2023-12-20T03:11:16.146Z,961.4
2023-12-20T03:12:21.280Z,961.4
2023-12-20T03:13:27.440Z,961.4
2023-12-20T03:14:33.570Z,961.4
2023-12-20T03:15:39.710Z,961.4
2023-12-20T03:16:45.866Z,961.4
2023-12-20T03:17:51.996Z,961.4
2023-12-20T03:18:58.146Z,961.4
2023-12-20T03:20:04.307Z,961.4
2023-12-20T03:21:10.438Z,961.4
2023-12-20T03:22:16.576Z,961.4
2023-12-20T03:23:22.722Z,961.5
2023-12-20T03:24:28.854Z,961.5
2023-12-20T03:25:34.999Z,961.5
2023-12-20T03:26:40.163Z,961.5
2023-12-20T03:27:46.320Z,961.5
2023-12-20T03:28:52.448Z,961.5
2023-12-20T03:29:58.588Z,961.5
2023-12-20T03:31:04.729Z,961.5
2023-12-20T03:32:10.868Z,961.5
2023-12-20T03:33:17.054Z,961.5
2023-12-20T03:34:23.163Z,961.5
2023-12-20T03:35:29.302Z,961.5
2023-12-20T03:36:35.457Z,961.6
2023-12-20T03:37:41.599Z,961.6
2023-12-20T03:38:47.740Z,961.6
2023-12-20T03:39:53.888Z,961.6
2023-12-20T03:40:59.049Z,961.6
2023-12-20T03:42:05.195Z,961.6
2023-12-20T03:43:11.336Z,961.6
2023-12-20T03:44:17.473Z,961.6
2023-12-20T03:45:23.615Z,961.6
2023-12-20T03:46:29.763Z,961.7
2023-12-20T03:47:35.898Z,961.6
2023-12-20T03:48:42.043Z,961.6
2023-12-20T03:49:48.203Z,961.6
2023-12-20T03:50:54.347Z,961.6
2023-12-20T03:52:00.489Z,961.6
2023-12-20T03:53:06.653Z,961.6
2023-12-20T03:54:12.755Z,961.7
2023-12-20T03:55:17.929Z,961.6
2023-12-20T03:56:24.070Z,961.6
2023-12-20T03:57:30.229Z,961.6
2023-12-20T03:58:36.352Z,961.6
2023-12-20T03:59:42.497Z,961.6
2023-12-20T04:00:48.639Z,961.6
2023-12-20T04:01:54.806Z,961.7
2023-12-20T04:03:00.928Z,961.7
2023-12-20T04:04:07.076Z,961.6
2023-12-20T04:05:13.219Z,961.6
2023-12-20T04:06:19.365Z,961.6
2023-12-20T04:07:25.507Z,961.6
2023-12-20T04:08:31.652Z,961.6
2023-12-20T04:09:36.819Z,961.6
2023-12-20T04:10:42.947Z,961.7
2023-12-20T04:11:49.094Z,961.7
2023-12-20T04:12:55.234Z,961.7
2023-12-20T04:14:01.378Z,961.7
2023-12-20T04:15:07.519Z,961.7
2023-12-20T04:16:12.699Z,961.7
2023-12-20T04:17:18.829Z,961.7
2023-12-20T04:18:24.988Z,961.8
2023-12-20T04:19:31.123Z,961.8
2023-12-20T04:20:37.266Z,961.8
2023-12-20T04:21:43.420Z,961.8
2023-12-20T04:22:49.547Z,961.8
2023-12-20T04:23:55.686Z,961.8
2023-12-20T04:25:01.843Z,961.8
2023-12-20T04:26:08.023Z,961.8
2023-12-20T04:27:14.140Z,961.8
2023-12-20T04:28:20.272Z,961.9
2023-12-20T04:29:26.414Z,961.9
2023-12-20T04:30:31.575Z,962
2023-12-20T04:31:37.740Z,962
2023-12-20T04:32:43.855Z,962
2023-12-20T04:33:50.025Z,962
2023-12-20T04:34:56.155Z,962
2023-12-20T04:36:02.300Z,962
2023-12-20T04:37:08.428Z,962
2023-12-20T04:38:14.601Z,962
2023-12-20T04:39:20.716Z,962
2023-12-20T04:40:26.883Z,962
2023-12-20T04:41:33.019Z,962.1
2023-12-20T04:42:39.167Z,962.1
2023-12-20T04:43:45.297Z,962.1
2023-12-20T04:44:50.449Z,962.1
2023-12-20T04:45:56.602Z,962.1
2023-12-20T04:47:02.737Z,962.1
2023-12-20T04:48:08.894Z,962.1
2023-12-20T04:49:15.031Z,962.1
2023-12-20T04:50:21.175Z,962.1
2023-12-20T04:51:27.333Z,962.1
2023-12-20T04:52:33.469Z,962.1
2023-12-20T04:53:39.600Z,962.1
2023-12-20T04:54:45.742Z,962.1
2023-12-20T04:55:51.889Z,962.1
2023-12-20T04:56:58.030Z,962.1
2023-12-20T04:58:04.180Z,962.1
2023-12-20T04:59:09.356Z,962.1
2023-12-20T05:00:15.474Z,962.1
2023-12-20T05:01:21.626Z,962.1
2023-12-20T05:02:27.772Z,962.2
2023-12-20T05:03:33.913Z,962.1
2023-12-20T05:04:40.054Z,962.1
2023-12-20T05:05:46.194Z,962.1
2023-12-20T05:06:52.335Z,962.1
2023-12-20T05:07:58.490Z,962.1
2023-12-20T05:09:04.623Z,962.1
2023-12-20T05:10:10.774Z,962.1
2023-12-20T05:11:16.923Z,962.2
2023-12-20T05:12:23.071Z,962.2
2023-12-20T05:13:28.226Z,962.1
2023-12-20T05:14:34.362Z,962.1
2023-12-20T05:15:40.520Z,962.2
2023-12-20T05:16:46.656Z,962.1
2023-12-20T05:17:52.793Z,962.1
2023-12-20T05:18:58.937Z,962.2
2023-12-20T05:20:05.082Z,962.2
2023-12-20T05:21:11.231Z,962.2
2023-12-20T05:22:17.360Z,962.2
2023-12-20T05:23:23.517Z,962.2
2023-12-20T05:24:29.655Z,962.2
2023-12-20T05:25:35.808Z,962.2
2023-12-20T05:26:41.945Z,962.3
2023-12-20T05:27:47.103Z,962.2
2023-12-20T05:28:53.252Z,962.2
2023-12-20T05:29:59.387Z,962.2
2023-12-20T05:31:05.542Z,962.2
2023-12-20T05:32:11.677Z,962.3
2023-12-20T05:33:17.820Z,962.3
2023-12-20T05:34:23.959Z,962.3
2023-12-20T05:35:30.101Z,962.3
2023-12-20T05:36:36.261Z,962.4
2023-12-20T05:37:42.413Z,962.4
2023-12-20T05:38:48.535Z,962.5
2023-12-20T05:39:54.681Z,962.5
2023-12-20T05:41:00.819Z,962.5
2023-12-20T05:42:05.980Z,962.4
2023-12-20T05:43:12.125Z,962.4
2023-12-20T05:44:18.265Z,962.4
2023-12-20T05:45:24.408Z,962.4
2023-12-20T05:46:30.552Z,962.4
2023-12-20T05:47:36.708Z,962.5
2023-12-20T05:48:42.893Z,962.5
2023-12-20T05:49:48.981Z,962.5
2023-12-20T05:50:55.127Z,962.5
2023-12-20T05:52:01.307Z,962.4
2023-12-20T05:53:07.426Z,962.4
2023-12-20T05:54:13.551Z,962.4
2023-12-20T05:55:19.700Z,962.4
2023-12-20T05:56:24.864Z,962.4
2023-12-20T05:57:31.002Z,962.4
2023-12-20T05:58:37.145Z,962.4
2023-12-20T05:59:43.295Z,962.5
2023-12-20T06:00:49.433Z,962.5
2023-12-20T06:01:55.579Z,962.5
2023-12-20T06:03:01.723Z,962.5
2023-12-20T06:04:07.871Z,962.5
2023-12-20T06:05:14.034Z,962.6
2023-12-20T06:06:20.149Z,962.6
2023-12-20T06:07:26.308Z,962.6
2023-12-20T06:08:32.433Z,962.6
2023-12-20T06:09:38.607Z,962.6
2023-12-20T06:10:43.744Z,962.6
2023-12-20T06:11:49.902Z,962.6
2023-12-20T06:12:56.046Z,962.7
2023-12-20T06:14:02.182Z,962.7
2023-12-20T06:15:08.331Z,962.7
2023-12-20T06:16:14.458Z,962.7
2023-12-20T06:17:20.608Z,962.6
2023-12-20T06:18:26.755Z,962.6
2023-12-20T06:19:32.892Z,962.6
2023-12-20T06:20:39.034Z,962.6
2023-12-20T06:21:45.206Z,962.5
2023-12-20T06:22:51.348Z,962.5
2023-12-20T06:23:57.473Z,962.6
2023-12-20T06:25:02.637Z,962.6
2023-12-20T06:26:08.768Z,962.6
2023-12-20T06:27:14.911Z,962.6
2023-12-20T06:28:21.062Z,962.6
2023-12-20T06:29:27.206Z,962.7
2023-12-20T06:30:33.366Z,962.7
2023-12-20T06:31:39.509Z,962.7
2023-12-20T06:32:45.630Z,962.7
2023-12-20T06:33:51.774Z,962.6
2023-12-20T06:34:57.921Z,962.6
2023-12-20T06:36:04.062Z,962.6
2023-12-20T06:37:10.212Z,962.7
2023-12-20T06:38:16.366Z,962.7
2023-12-20T06:39:21.530Z,962.7
2023-12-20T06:40:27.648Z,962.7
2023-12-20T06:41:33.809Z,962.7
2023-12-20T06:42:39.938Z,962.7
2023-12-20T06:43:46.095Z,962.7
2023-12-20T06:44:52.225Z,962.7
2023-12-20T06:45:58.377Z,962.8
2023-12-20T06:47:04.514Z,962.8
2023-12-20T06:48:10.662Z,962.8
2023-12-20T06:49:16.825Z,962.8
2023-12-20T06:50:22.970Z,962.8
2023-12-20T06:51:29.126Z,962.8
2023-12-20T06:52:35.234Z,962.9
2023-12-20T06:53:40.400Z,962.9
2023-12-20T06:54:46.551Z,962.9
2023-12-20T06:55:52.678Z,963
2023-12-20T06:56:58.847Z,963
2023-12-20T06:58:04.964Z,963
2023-12-20T06:59:11.113Z,963
2023-12-20T07:00:17.275Z,963
2023-12-20T07:01:23.393Z,963
2023-12-20T07:02:29.527Z,963
2023-12-20T07:03:35.724Z,962.9
2023-12-20T07:04:41.822Z,962.9
2023-12-20T07:05:47.967Z,962.9
2023-12-20T07:06:54.112Z,962.9
2023-12-20T07:07:59.275Z,962.9
2023-12-20T07:09:05.424Z,962.9
2023-12-20T07:10:11.561Z,962.9
2023-12-20T07:11:17.723Z,962.9
2023-12-20T07:12:23.845Z,962.9
2023-12-20T07:13:29.993Z,962.9
2023-12-20T07:14:36.137Z,962.9
2023-12-20T07:15:42.290Z,962.9
2023-12-20T07:16:48.415Z,962.9
2023-12-20T07:17:54.685Z,962.9
2023-12-20T07:19:00.708Z,963
2023-12-20T07:20:06.890Z,963
2023-12-20T07:21:13.170Z,963
2023-12-20T07:22:18.207Z,963
2023-12-20T07:23:24.310Z,963
2023-12-20T07:24:30.615Z,963
2023-12-20T07:25:36.810Z,963
2023-12-20T07:26:42.944Z,963
2023-12-20T07:27:49.066Z,963
2023-12-20T07:28:55.167Z,963
2023-12-20T07:30:01.438Z,963
2023-12-20T07:31:07.393Z,963
2023-12-20T07:32:13.468Z,963.1
2023-12-20T07:33:19.583Z,963.1
2023-12-20T07:34:25.797Z,963.1
2023-12-20T07:35:31.907Z,963.1
2023-12-20T07:36:37.052Z,963.2
2023-12-20T07:37:43.240Z,963.2
2023-12-20T07:38:49.326Z,963.2
2023-12-20T07:39:55.466Z,963.2
2023-12-20T07:41:01.626Z,963.2
2023-12-20T07:42:07.777Z,963.2
2023-12-20T07:43:13.919Z,963.2
2023-12-20T07:44:20.066Z,963.2
2023-12-20T07:45:26.188Z,963.2
2023-12-20T07:46:32.444Z,963.2
2023-12-20T07:47:38.466Z,963.2
2023-12-20T07:48:44.621Z,963.2
2023-12-20T07:49:50.809Z,963.3
2023-12-20T07:50:55.918Z,963.3
2023-12-20T07:52:02.100Z,963.3
2023-12-20T07:53:08.228Z,963.3
2023-12-20T07:54:14.378Z,963.3
2023-12-20T07:55:20.529Z,963.3
2023-12-20T07:56:26.657Z,963.3
2023-12-20T07:57:31.803Z,963.2
2023-12-20T07:58:37.947Z,963.3
2023-12-20T07:59:44.101Z,963.3
2023-12-20T08:00:50.231Z,963.3
2023-12-20T08:01:56.451Z,963.3
2023-12-20T08:03:02.612Z,963.3
2023-12-20T08:04:08.801Z,963.3
2023-12-20T08:05:14.857Z,963.3
2023-12-20T08:06:20.989Z,963.3
2023-12-20T08:07:27.231Z,963.3
2023-12-20T08:08:33.246Z,963.3
2023-12-20T08:10:45.527Z,963.4
2023-12-20T08:11:50.744Z,963.4
2023-12-20T08:12:56.861Z,963.4
2023-12-20T08:14:02.967Z,963.4
2023-12-20T08:15:09.208Z,963.4
2023-12-20T08:16:15.285Z,963.4
2023-12-20T08:17:21.604Z,963.3
2023-12-20T08:18:27.560Z,963.4
2023-12-20T08:19:33.707Z,963.4
2023-12-20T08:20:39.853Z,963.4
2023-12-20T08:21:45.976Z,963.4
2023-12-20T08:22:52.111Z,963.4
2023-12-20T08:23:58.282Z,963.4
2023-12-20T08:25:04.404Z,963.4
2023-12-20T08:26:09.684Z,963.4
2023-12-20T08:27:15.707Z,963.4
2023-12-20T08:28:21.851Z,963.4
2023-12-20T08:29:27.996Z,963.4
2023-12-20T08:30:34.150Z,963.4
2023-12-20T08:31:40.287Z,963.4
2023-12-20T08:32:46.420Z,963.5
2023-12-20T08:33:52.561Z,963.5
2023-12-20T08:34:58.721Z,963.5
2023-12-20T08:36:04.854Z,963.5
2023-12-20T08:37:10.995Z,963.5
2023-12-20T08:38:17.147Z,963.5
2023-12-20T08:39:23.288Z,963.5
2023-12-20T08:40:28.450Z,963.5
2023-12-20T08:41:34.591Z,963.5
2023-12-20T08:42:40.754Z,963.5
2023-12-20T08:43:46.928Z,963.5
2023-12-20T08:44:53.026Z,963.6
2023-12-20T08:45:59.164Z,963.6
2023-12-20T08:47:05.291Z,963.6
2023-12-20T08:48:11.443Z,963.6
2023-12-20T08:49:17.600Z,963.6
2023-12-20T08:50:23.788Z,963.5
2023-12-20T08:51:29.911Z,963.5
2023-12-20T08:52:36.042Z,963.5
2023-12-20T08:53:42.195Z,963.5
2023-12-20T08:54:47.345Z,963.5
2023-12-20T08:55:53.469Z,963.5
2023-12-20T08:56:59.611Z,963.5
2023-12-20T08:58:05.761Z,963.5
2023-12-20T08:59:11.895Z,963.5
2023-12-20T09:00:18.047Z,963.5
2023-12-20T09:01:24.201Z,963.5
2023-12-20T09:02:30.489Z,963.5
2023-12-20T09:03:36.504Z,963.5
2023-12-20T09:04:42.630Z,963.5
2023-12-20T09:05:48.773Z,963.4
2023-12-20T09:06:54.908Z,963.4
2023-12-20T09:09:07.275Z,963.4
2023-12-20T09:10:12.380Z,963.4
2023-12-20T09:11:18.582Z,963.5
2023-12-20T09:12:24.673Z,963.5
2023-12-20T09:13:30.791Z,963.5
2023-12-20T09:14:36.919Z,963.6
2023-12-20T09:15:43.179Z,963.6
2023-12-20T09:16:49.217Z,963.6
2023-12-20T09:17:55.354Z,963.6
2023-12-20T09:19:01.504Z,963.7
2023-12-20T09:20:07.652Z,963.7
2023-12-20T09:21:13.784Z,963.6
2023-12-20T09:22:19.929Z,963.7
2023-12-20T09:23:26.099Z,963.6
2023-12-20T09:24:31.229Z,963.7
2023-12-20T09:25:37.385Z,963.7
2023-12-20T09:26:43.529Z,963.7
2023-12-20T09:27:49.668Z,963.7
2023-12-20T09:30:01.961Z,963.7
2023-12-20T09:31:08.101Z,963.7
2023-12-20T09:32:14.242Z,963.7
2023-12-20T09:33:20.387Z,963.7
2023-12-20T09:34:26.522Z,963.7
2023-12-20T09:35:32.667Z,963.7
2023-12-20T09:36:38.810Z,963.7
2023-12-20T09:38:51.111Z,963.7
2023-12-20T09:39:56.276Z,963.7
2023-12-20T09:41:02.441Z,963.7
2023-12-20T09:42:08.549Z,963.7
2023-12-20T09:43:14.706Z,963.7
2023-12-20T09:44:20.840Z,963.8
2023-12-20T09:45:26.993Z,963.8
2023-12-20T09:46:33.122Z,963.8
2023-12-20T09:47:39.311Z,963.8
2023-12-20T09:48:45.436Z,963.8
2023-12-20T09:49:51.558Z,963.8
2023-12-20T09:50:57.820Z,963.8
2023-12-20T09:52:03.841Z,963.8
2023-12-20T09:53:09.991Z,963.7
2023-12-20T09:54:15.178Z,963.7
2023-12-20T09:55:21.286Z,963.8
2023-12-20T09:56:27.451Z,963.8
2023-12-20T09:57:33.569Z,963.8
2023-12-20T09:58:39.783Z,963.7
2023-12-20T09:59:45.860Z,963.7
2023-12-20T10:00:52.009Z,963.7
2023-12-20T10:01:58.163Z,963.7
2023-12-20T10:03:04.356Z,963.7
2023-12-20T10:04:10.438Z,963.7
2023-12-20T10:05:16.592Z,963.7
2023-12-20T10:06:22.999Z,963.8
2023-12-20T10:07:28.866Z,963.7
2023-12-20T10:08:34.257Z,963.7
2023-12-20T10:09:40.552Z,963.7
2023-12-20T10:10:46.575Z,963.7
2023-12-20T10:11:52.645Z,963.7
2023-12-20T10:12:58.795Z,963.7
2023-12-20T10:14:04.892Z,963.7
2023-12-20T10:15:11.047Z,963.7
2023-12-20T10:16:17.293Z,963.7
2023-12-20T10:17:23.396Z,963.6
2023-12-20T10:18:29.619Z,963.6
2023-12-20T10:19:35.779Z,963.6
2023-12-20T10:20:41.922Z,963.5
2023-12-20T10:21:47.833Z,963.5
2023-12-20T10:22:53.202Z,963.4
2023-12-20T10:23:59.053Z,963.4
2023-12-20T10:25:05.491Z,963.4
2023-12-20T10:26:11.604Z,963.4
2023-12-20T10:28:23.969Z,963.4
2023-12-20T10:29:30.002Z,963.4
2023-12-20T10:30:36.242Z,963.4
2023-12-20T10:31:42.367Z,963.4
2023-12-20T10:32:48.533Z,963.3
2023-12-20T10:33:54.641Z,963.3
2023-12-20T10:35:00.805Z,963.3
2023-12-20T10:36:06.820Z,963.2
2023-12-20T10:37:12.077Z,963.2
2023-12-20T10:38:18.248Z,963.2
2023-12-20T10:39:24.078Z,963.2
2023-12-20T10:40:30.238Z,963.1
2023-12-20T10:41:36.518Z,963.1
2023-12-20T10:42:42.796Z,963.1
2023-12-20T10:43:48.956Z,963.1
2023-12-20T10:44:54.818Z,963.1
2023-12-20T10:46:01.305Z,963.1
2023-12-20T10:47:07.089Z,963.1
2023-12-20T10:48:13.337Z,963.1
2023-12-20T10:49:19.516Z,963.1
2023-12-20T10:50:25.673Z,963.1
2023-12-20T10:51:30.672Z,963.1
2023-12-20T10:52:36.910Z,963.1
2023-12-20T10:53:43.129Z,963.2
2023-12-20T10:54:49.326Z,963.1
2023-12-20T10:55:55.536Z,963.1
2023-12-20T10:57:01.420Z,963.1
2023-12-20T10:58:07.716Z,963.1
2023-12-20T10:59:13.686Z,963.1
2023-12-20T11:00:19.941Z,963.1
2023-12-20T11:01:26.006Z,963.1
2023-12-20T11:02:32.142Z,963.1
2023-12-20T11:03:38.259Z,963
2023-12-20T11:04:44.421Z,963
2023-12-20T11:05:49.573Z,962.9
2023-12-20T11:06:56.077Z,963
2023-12-20T11:08:01.942Z,962.9
2023-12-20T11:09:08.308Z,962.9
2023-12-20T11:10:14.380Z,962.9
2023-12-20T11:11:20.266Z,962.9
2023-12-20T11:12:26.606Z,962.8
2023-12-20T11:13:32.550Z,962.8
2023-12-20T11:14:38.698Z,962.8
2023-12-20T11:15:44.952Z,962.8
2023-12-20T11:16:51.234Z,962.9
2023-12-20T11:17:57.324Z,962.9
2023-12-20T11:19:03.452Z,962.9
2023-12-20T11:20:08.662Z,962.9
2023-12-20T11:21:14.575Z,962.9
2023-12-20T11:22:20.731Z,962.9
2023-12-20T11:23:27.140Z,963
2023-12-20T11:24:33.295Z,962.8
2023-12-20T11:25:39.473Z,962.8
2023-12-20T11:26:45.560Z,963.1
2023-12-20T11:27:51.740Z,963
2023-12-20T11:28:57.744Z,962.7
2023-12-20T11:30:03.936Z,962.8
2023-12-20T11:31:10.096Z,962.9
2023-12-20T11:32:16.267Z,962.6
2023-12-20T11:33:22.220Z,962.7
2023-12-20T11:34:27.588Z,962.6
2023-12-20T11:35:33.471Z,962.6
2023-12-20T11:36:39.708Z,962.6
2023-12-20T11:37:45.998Z,962.7
2023-12-20T11:38:51.128Z,962.7
2023-12-20T11:39:57.387Z,962.7
2023-12-20T11:41:03.268Z,962.7
2023-12-20T11:42:09.400Z,962.6
2023-12-20T11:43:15.663Z,962.6
2023-12-20T11:44:21.882Z,962.6
2023-12-20T11:45:27.814Z,962.7
2023-12-20T11:46:34.226Z,962.7
2023-12-20T11:47:40.338Z,962.7
2023-12-20T11:48:46.401Z,962.6
2023-12-20T11:49:52.598Z,962.7
2023-12-20T11:50:58.658Z,962.7
2023-12-20T11:52:04.649Z,962.7
2023-12-20T11:53:10.768Z,962.6
2023-12-20T11:54:15.921Z,962.7
2023-12-20T11:55:22.194Z,962.7
2023-12-20T11:56:28.455Z,962.7
2023-12-20T11:57:34.565Z,962.8
2023-12-20T11:58:40.490Z,962.7
2023-12-20T11:59:46.658Z,962.7
2023-12-20T12:00:53.158Z,962.7
2023-12-20T12:01:58.933Z,962.7
2023-12-20T12:03:05.387Z,962.7
2023-12-20T12:04:11.449Z,963
2023-12-20T12:05:17.632Z,962.6
2023-12-20T12:06:23.736Z,962.6
2023-12-20T12:07:29.774Z,962.6
2023-12-20T12:08:34.800Z,962.6
2023-12-20T12:09:41.020Z,962.5
2023-12-20T12:10:47.309Z,962.6
2023-12-20T12:11:53.219Z,962.6
2023-12-20T12:12:59.739Z,962.6
2023-12-20T12:14:05.721Z,962.6
2023-12-20T12:15:11.886Z,962.6
2023-12-20T12:16:18.000Z,962.6
2023-12-20T12:17:24.130Z,962.6
2023-12-20T12:18:30.278Z,962.5
2023-12-20T12:19:36.410Z,962.5
2023-12-20T12:20:42.677Z,962.5
2023-12-20T12:21:48.945Z,962.5
2023-12-20T12:22:53.918Z,962.5
2023-12-20T12:24:00.064Z,962.5
2023-12-20T12:25:05.988Z,962.5
2023-12-20T12:26:12.345Z,962.5
2023-12-20T12:27:18.298Z,962.5
2023-12-20T12:28:24.480Z,962.5
2023-12-20T12:29:30.598Z,962.5
2023-12-20T12:30:36.845Z,962.5
2023-12-20T12:31:43.000Z,962.5
2023-12-20T12:32:49.097Z,962.5
2023-12-20T12:33:55.221Z,962.5
2023-12-20T12:35:01.251Z,962.6
2023-12-20T12:36:07.645Z,962.6
2023-12-20T12:37:12.553Z,962.6
2023-12-20T12:38:18.722Z,962.6
2023-12-20T12:39:24.884Z,962.6
2023-12-20T12:40:30.998Z,962.6
2023-12-20T12:41:37.356Z,962.7
2023-12-20T12:42:43.571Z,962.7
2023-12-20T12:43:49.641Z,962.7
2023-12-20T12:44:55.581Z,962.7
2023-12-20T12:46:01.838Z,962.7
2023-12-20T12:47:07.983Z,962.8
2023-12-20T12:48:14.072Z,962.8
2023-12-20T12:49:20.225Z,962.8
2023-12-20T12:50:26.313Z,962.7
2023-12-20T12:51:31.545Z,962.7
2023-12-20T12:52:37.637Z,962.8
2023-12-20T12:53:43.729Z,962.8
2023-12-20T12:54:49.878Z,962.9
2023-12-20T12:55:56.104Z,962.8
2023-12-20T12:57:02.229Z,962.8
2023-12-20T12:58:08.312Z,962.8
2023-12-20T12:59:14.497Z,962.9
2023-12-20T13:00:20.726Z,962.8
2023-12-20T13:01:26.729Z,962.8
2023-12-20T13:02:32.986Z,962.8
2023-12-20T13:03:39.227Z,962.8
2023-12-20T13:04:45.159Z,962.7
2023-12-20T13:05:50.321Z,962.8
2023-12-20T13:06:56.503Z,962.8
2023-12-20T13:08:02.596Z,962.8
2023-12-20T13:09:08.737Z,962.8
2023-12-20T13:10:14.915Z,962.8
2023-12-20T13:11:21.078Z,962.7
2023-12-20T13:12:27.222Z,962.8
2023-12-20T13:13:33.313Z,962.8
2023-12-20T13:14:39.475Z,962.8
2023-12-20T13:15:45.710Z,962.9
2023-12-20T13:16:51.804Z,962.9
2023-12-20T13:17:57.890Z,962.9
2023-12-20T13:19:04.166Z,962.9
2023-12-20T13:20:09.368Z,962.9
2023-12-20T13:21:15.451Z,962.8
2023-12-20T13:22:21.521Z,962.8
2023-12-20T13:23:27.616Z,962.9
2023-12-20T13:24:33.781Z,962.8
2023-12-20T13:25:39.909Z,962.9
2023-12-20T13:26:46.043Z,962.9
2023-12-20T13:27:52.186Z,962.9
2023-12-20T13:28:58.349Z,962.9
2023-12-20T13:30:04.618Z,962.8
2023-12-20T13:31:10.646Z,962.9
2023-12-20T13:32:16.888Z,962.9
2023-12-20T13:33:22.958Z,962.9
2023-12-20T13:34:28.089Z,962.9
2023-12-20T13:35:34.219Z,962.9
2023-12-20T13:36:40.432Z,963
2023-12-20T13:37:46.503Z,963
2023-12-20T13:38:52.660Z,962.9
2023-12-20T13:39:58.779Z,963
2023-12-20T13:41:04.934Z,963
2023-12-20T13:42:11.109Z,963
2023-12-20T13:43:17.212Z,963
2023-12-20T13:44:23.463Z,963
2023-12-20T13:45:29.571Z,963.1
2023-12-20T13:46:35.661Z,963.1
2023-12-20T13:47:41.892Z,963
2023-12-20T13:48:47.044Z,963
2023-12-20T13:49:53.104Z,963
2023-12-20T13:50:59.221Z,963
2023-12-20T13:52:05.379Z,963
2023-12-20T13:53:11.614Z,963
2023-12-20T13:54:17.669Z,963.1
2023-12-20T13:55:23.821Z,963.1
2023-12-20T13:56:29.959Z,963.1
2023-12-20T13:57:36.110Z,963.1
2023-12-20T13:58:42.241Z,963.1
2023-12-20T13:59:48.383Z,963.1
2023-12-20T14:00:54.746Z,963.1
2023-12-20T14:02:00.672Z,963.2
2023-12-20T14:03:05.839Z,963.1
2023-12-20T14:04:12.148Z,963.1
2023-12-20T14:05:18.113Z,963.2
2023-12-20T14:06:24.268Z,963.2
2023-12-20T14:07:30.416Z,963.2
2023-12-20T14:08:36.565Z,963.2
2023-12-20T14:09:42.678Z,963.2
2023-12-20T14:10:48.823Z,963.2
2023-12-20T14:11:54.965Z,963.2
2023-12-20T14:13:01.306Z,963.2
2023-12-20T14:14:07.315Z,963.3
2023-12-20T14:15:13.417Z,963.3
2023-12-20T14:16:19.718Z,963.3
2023-12-20T14:17:24.708Z,963.3
2023-12-20T14:18:30.867Z,963.4
2023-12-20T14:19:37.075Z,963.4